CheckWX is a tool to help pilots better visualize weather data.  It is not intended as a substitute for an official pre-flight weather briefing.

23:50:04 UTC

KCEF TAF
Westover ARB / Metropolitan Airport
Springfield/Chicopee, Massachusetts, USA
TAF KCEF 181801Z 1818/1924 30010G15KT 9999 BKN040 QNH2976INS TEMPO 1818/1822 31015G25KT 520004 BECMG 1821/1822 31009KT 9999 SCT040 QNH2985INS BECMG 1901/1902 VRB04KT 9999 FEW030 QNH2993INS BECMG 1912/1913 28009KT 9999 FEW025 FEW200 QNH3001INS TX16/1918Z TNM01/1910Z

Oct-18@
18:00 UTC

Oct-18 @ 18:00 UTC

Oct-18@
21:00 UTC

Oct-18 @ 21:00 UTC

TAF KCEF 181801Z 1818/1924 30010G15KT 9999 BKN040 QNH2976INS

Expired

Wind
  • 300° at 10 KTS
  • {Gusting to 15 KTS
Cloud Levels
  • Broken at 4,000' AGL

Oct-18@
18:00 UTC

Oct-18 @ 18:00 UTC

Oct-18@
22:00 UTC

Oct-18 @ 22:00 UTC

TEMPO 1818/1822 31015G25KT 520004

Expired

Wind
  • 310° at 15 KTS
  • {Gusting to 25 KTS
Turbulence
< Occasional moderate clear air turbulence expected at the surface extending to 4,000' AGL

Oct-18@
21:00 UTC

Oct-18 @ 21:00 UTC

Oct-19@
01:00 UTC

Oct-19 @ 01:00 UTC

BECMG 1821/1822 31009KT 9999 SCT040 QNH2985INS

Becoming

Becoming Conditions expected by Fri, Oct 18, 2019 @ 22:00 UTC

Wind
  • 310° at 9 KTS
Cloud Levels
  • Scattered at 4,000' AGL

Oct-19@
01:00 UTC

Oct-19 @ 01:00 UTC

Oct-19@
12:00 UTC

Oct-19 @ 12:00 UTC

BECMG 1901/1902 VRB04KT 9999 FEW030 QNH2993INS

Becoming

Becoming Conditions expected by Sat, Oct 19, 2019 @ 02:00 UTC

Wind
  • Variable at 4 KTS
Cloud Levels
  • Few at 3,000' AGL

Oct-19@
12:00 UTC

Oct-19 @ 12:00 UTC

Oct-20@
00:00 UTC

Oct-20 @ 00:00 UTC

BECMG 1912/1913 28009KT 9999 FEW025 FEW200 QNH3001INS TX16/1918Z TNM01/1910Z

Becoming

Becoming Conditions expected by Sat, Oct 19, 2019 @ 13:00 UTC

Wind
  • 280° at 9 KTS
Cloud Levels
  • Few at 2,500' AGL
  • Few at 20,000' AGL